Time;durP1;ratioP1;P1;durP2;ratioP2;P2;SDS_P1;SDS_P2;PMS_P1;PMS_P2;Temp;Humidity;BMP_temperature;BMP_pressure;BME280_temperature;BME280_humidity;BME280_pressure;Samples;Min_cycle;Max_cycle;Signal;HPM_P1;HPM_P2
2023/11/13 00:01:04;;;;;;;5.70;4.60;;;8.00;99.90;;;;;;5087059;28;20474;-60
2023/11/13 00:03:31;;;;;;;4.47;3.90;;;8.10;99.90;;;;;;5087520;28;20500;-62
2023/11/13 00:05:59;;;;;;;4.13;3.37;;;7.90;99.90;;;;;;5086872;28;20476;-60
2023/11/13 00:08:26;;;;;;;4.33;3.17;;;8.00;99.90;;;;;;5086371;28;20454;-59
2023/11/13 00:10:54;;;;;;;4.43;3.43;;;8.50;99.90;;;;;;5086956;28;20446;-61
2023/11/13 00:13:21;;;;;;;3.30;2.70;;;5.90;99.90;;;;;;5086918;28;20453;-59
2023/11/13 00:15:48;;;;;;;4.53;3.30;;;8.00;99.90;;;;;;5087013;28;20481;-56
2023/11/13 00:18:17;;;;;;;3.87;2.53;;;7.90;99.90;;;;;;5086254;28;20442;-60
2023/11/13 00:20:46;;;;;;;13.43;3.80;;;7.90;99.90;;;;;;5086448;28;20450;-58
2023/11/13 00:23:13;;;;;;;5.20;4.43;;;7.90;99.90;;;;;;5087214;28;20442;-60
2023/11/13 00:25:40;;;;;;;3.07;2.77;;;8.00;99.90;;;;;;5086974;28;20470;-60
2023/11/13 00:28:07;;;;;;;3.23;2.93;;;7.90;99.90;;;;;;5086022;28;20509;-62
2023/11/13 00:30:34;;;;;;;4.50;3.27;;;7.90;99.90;;;;;;5086748;28;20442;-57
2023/11/13 00:33:01;;;;;;;5.40;3.13;;;7.90;99.90;;;;;;5086976;28;20434;-59
2023/11/13 00:35:30;;;;;;;4.40;2.60;;;7.90;99.90;;;;;;5087353;28;20442;-59
2023/11/13 00:37:57;;;;;;;3.40;2.57;;;8.00;99.90;;;;;;5087250;28;20454;-61
2023/11/13 00:40:25;;;;;;;3.70;3.07;;;8.00;99.90;;;;;;5084749;28;20467;-61
2023/11/13 00:42:51;;;;;;;4.80;3.03;;;8.10;99.90;;;;;;5066114;28;20463;-60
2023/11/13 00:45:19;;;;;;;4.23;2.60;;;8.10;99.90;;;;;;5058527;28;20479;-61
2023/11/13 00:47:46;;;;;;;6.10;3.00;;;8.10;99.90;;;;;;5058370;28;21054;-61
2023/11/13 00:50:13;;;;;;;4.73;2.70;;;8.10;99.90;;;;;;5066503;28;20478;-60
2023/11/13 00:52:41;;;;;;;3.97;3.40;;;8.10;99.90;;;;;;5077948;28;20838;-59
2023/11/13 00:55:10;;;;;;;4.83;3.00;;;8.00;99.90;;;;;;5078317;28;20442;-59
2023/11/13 00:57:37;;;;;;;3.97;2.80;;;8.00;99.90;;;;;;5078316;28;20516;-60
2023/11/13 01:00:05;;;;;;;6.37;3.90;;;8.00;99.90;;;;;;5079008;28;20442;-61
2023/11/13 01:02:32;;;;;;;3.80;2.80;;;8.00;99.90;;;;;;5078564;28;20453;-59
2023/11/13 01:05:03;;;;;;;4.00;3.27;;;8.00;99.90;;;;;;5078318;28;20553;-60
2023/11/13 01:07:30;;;;;;;3.27;2.97;;;8.10;99.90;;;;;;5080126;28;20442;-60
2023/11/13 01:09:58;;;;;;;3.17;2.50;;;8.10;99.90;;;;;;5082106;28;20927;-61
2023/11/13 01:12:25;;;;;;;3.83;2.70;;;8.10;99.90;;;;;;5082858;28;20490;-59
2023/11/13 01:14:52;;;;;;;4.20;2.67;;;8.00;99.90;;;;;;5082167;28;20458;-61
2023/11/13 01:17:19;;;;;;;5.87;3.33;;;8.10;99.90;;;;;;5082343;28;20490;-59
2023/11/13 01:19:46;;;;;;;6.00;2.93;;;8.00;99.90;;;;;;5082327;28;20465;-61
2023/11/13 01:22:13;;;;;;;4.80;3.20;;;8.10;99.90;;;;;;5082464;28;20483;-60
2023/11/13 01:24:40;;;;;;;3.90;3.03;;;8.10;99.90;;;;;;5082214;28;20485;-61
2023/11/13 01:27:09;;;;;;;12.83;3.13;;;8.10;99.90;;;;;;5081579;28;20500;-60
2023/11/13 01:29:36;;;;;;;5.10;3.03;;;8.10;99.90;;;;;;5081887;28;20549;-61
2023/11/13 01:32:03;;;;;;;3.90;2.40;;;8.10;99.90;;;;;;5082325;28;20989;-60
2023/11/13 01:34:30;;;;;;;5.50;2.50;;;8.00;99.90;;;;;;5082119;28;20538;-61
2023/11/13 01:36:57;;;;;;;6.73;3.20;;;8.00;99.90;;;;;;5082154;28;20478;-61
2023/11/13 01:39:24;;;;;;;5.00;3.20;;;8.00;99.90;;;;;;5082378;28;20512;-60
2023/11/13 01:41:51;;;;;;;3.43;2.67;;;8.00;99.90;;;;;;5081692;28;20481;-59
2023/11/13 01:44:20;;;;;;;4.40;3.00;;;8.00;99.90;;;;;;5081384;28;20450;-59
2023/11/13 01:46:48;;;;;;;3.30;2.27;;;8.00;99.90;;;;;;5081848;28;20684;-60
2023/11/13 01:49:15;;;;;;;6.10;2.63;;;8.00;99.90;;;;;;5081936;28;20442;-60
2023/11/13 01:51:42;;;;;;;3.13;2.23;;;8.00;99.90;;;;;;5081497;28;20477;-59
2023/11/13 01:54:09;;;;;;;4.03;2.70;;;8.00;99.90;;;;;;5081048;28;20486;-62
2023/11/13 01:56:36;;;;;;;4.53;2.47;;;8.00;99.90;;;;;;5081714;28;20545;-58
2023/11/13 01:59:04;;;;;;;3.27;2.80;;;8.00;99.90;;;;;;5081120;28;20524;-59
2023/11/13 02:01:32;;;;;;;3.27;2.70;;;8.00;99.90;;;;;;5080087;28;20530;-58
2023/11/13 02:03:59;;;;;;;7.43;3.20;;;8.00;99.90;;;;;;5081340;28;20525;-59
2023/11/13 02:06:27;;;;;;;3.30;2.80;;;8.00;99.90;;;;;;5081471;28;20489;-60
2023/11/13 02:08:54;;;;;;;6.93;3.10;;;8.00;99.90;;;;;;5081309;28;20478;-59
2023/11/13 02:11:22;;;;;;;3.67;2.67;;;8.00;99.90;;;;;;5081384;28;21034;-61
2023/11/13 02:13:51;;;;;;;3.00;2.50;;;8.00;99.90;;;;;;5081453;28;20514;-60
2023/11/13 02:16:18;;;;;;;5.17;2.77;;;8.00;99.90;;;;;;5081036;28;20568;-58
2023/11/13 02:18:47;;;;;;;3.33;2.93;;;8.00;99.90;;;;;;5080666;28;20485;-61
2023/11/13 02:21:14;;;;;;;5.67;2.87;;;8.00;99.90;;;;;;5081608;28;20447;-60
2023/11/13 02:23:42;;;;;;;3.33;2.70;;;8.10;99.90;;;;;;5081558;28;20906;-60
2023/11/13 02:26:14;;;;;;;2.63;2.13;;;8.00;99.90;;;;;;5081072;28;20592;-60
2023/11/13 02:28:41;;;;;;;3.70;2.60;;;8.00;99.90;;;;;;5081004;28;20891;-60
2023/11/13 02:31:08;;;;;;;3.33;2.70;;;8.00;99.90;;;;;;5081138;28;20490;-58
2023/11/13 02:33:35;;;;;;;5.50;2.90;;;8.00;99.90;;;;;;5080777;28;20489;-59
2023/11/13 02:36:02;;;;;;;3.30;2.60;;;8.00;99.90;;;;;;5080548;28;20457;-60
2023/11/13 02:38:29;;;;;;;3.73;2.87;;;8.00;99.90;;;;;;5080408;28;20530;-61
2023/11/13 02:40:58;;;;;;;3.70;1.93;;;8.00;99.90;;;;;;5080339;28;20541;-61
2023/11/13 02:43:25;;;;;;;2.57;2.30;;;8.00;99.90;;;;;;5080332;28;20537;-59
2023/11/13 02:45:53;;;;;;;5.13;2.30;;;8.00;99.90;;;;;;5080621;28;20434;-60
2023/11/13 02:48:20;;;;;;;3.70;2.50;;;8.00;99.90;;;;;;5079691;28;20533;-61
2023/11/13 02:50:47;;;;;;;3.43;2.50;;;7.90;99.90;;;;;;5079906;28;20470;-60
2023/11/13 02:53:14;;;;;;;2.50;2.30;;;7.90;99.90;;;;;;5080102;28;20474;-59
2023/11/13 02:55:41;;;;;;;5.10;2.00;;;7.90;99.90;;;;;;5080436;28;20466;-60
2023/11/13 02:58:09;;;;;;;4.43;1.93;;;7.90;99.90;;;;;;5079707;28;20518;-61
2023/11/13 03:00:36;;;;;;;4.00;2.70;;;7.90;99.90;;;;;;5080532;28;20517;-61
2023/11/13 03:03:03;;;;;;;6.13;2.23;;;7.90;99.90;;;;;;5080396;28;20447;-60
2023/11/13 03:05:30;;;;;;;2.90;2.50;;;8.00;99.90;;;;;;5080388;28;20500;-61
2023/11/13 03:07:59;;;;;;;3.33;2.33;;;8.00;99.90;;;;;;5080676;28;21003;-60
2023/11/13 03:10:26;;;;;;;2.50;2.30;;;8.00;99.90;;;;;;5079836;28;20439;-59
2023/11/13 03:12:53;;;;;;;9.33;2.90;;;7.90;99.90;;;;;;5079628;28;20442;-61
2023/11/13 03:15:21;;;;;;;3.93;2.70;;;7.90;99.90;;;;;;5080411;28;20442;-60
2023/11/13 03:17:48;;;;;;;2.50;1.87;;;7.90;99.90;;;;;;5079927;28;20497;-61
2023/11/13 03:20:15;;;;;;;4.77;2.80;;;7.80;99.90;;;;;;5080366;28;20510;-60
2023/11/13 03:22:44;;;;;;;2.40;2.17;;;7.80;99.90;;;;;;5080074;28;20452;-61
2023/11/13 03:25:13;;;;;;;6.20;2.63;;;7.80;99.90;;;;;;5080575;28;20935;-59
2023/11/13 03:27:39;;;;;;;3.80;2.40;;;7.80;99.90;;;;;;5079793;28;20434;-59
2023/11/13 03:30:08;;;;;;;4.13;2.10;;;7.80;99.90;;;;;;5080250;28;20957;-60
2023/11/13 03:32:36;;;;;;;3.97;2.87;;;7.80;99.90;;;;;;5079846;28;20529;-58
2023/11/13 03:35:03;;;;;;;2.30;2.10;;;7.80;99.90;;;;;;5080006;28;20446;-60
2023/11/13 03:37:30;;;;;;;2.77;2.50;;;7.80;99.90;;;;;;5080193;28;20497;-60
2023/11/13 03:39:57;;;;;;;9.10;2.83;;;7.80;99.90;;;;;;5079707;28;20487;-59
2023/11/13 03:42:24;;;;;;;3.17;2.57;;;7.80;99.90;;;;;;5080063;28;20517;-61
2023/11/13 03:44:51;;;;;;;2.67;2.47;;;7.80;99.90;;;;;;5079764;28;20580;-60
2023/11/13 03:47:18;;;;;;;1.70;1.37;;;7.80;99.90;;;;;;5080122;28;20434;-61
2023/11/13 03:49:46;;;;;;;2.13;1.70;;;7.80;99.90;;;;;;5080549;28;20450;-59
2023/11/13 03:52:14;;;;;;;3.97;2.47;;;7.80;99.90;;;;;;5079963;28;20520;-61
2023/11/13 03:54:41;;;;;;;2.00;1.70;;;7.80;99.90;;;;;;5079318;28;20521;-60
2023/11/13 03:57:10;;;;;;;3.00;1.90;;;7.80;99.90;;;;;;5079302;28;20474;-60
2023/11/13 03:59:37;;;;;;;2.40;2.20;;;7.70;99.90;;;;;;5079045;28;20513;-61
2023/11/13 04:02:04;;;;;;;3.23;2.30;;;7.80;99.90;;;;;;5079493;28;20529;-60
2023/11/13 04:04:31;;;;;;;2.83;2.07;;;7.70;99.90;;;;;;5079478;28;20446;-60
2023/11/13 04:06:59;;;;;;;9.47;2.60;;;7.70;99.90;;;;;;5079415;28;20466;-58
2023/11/13 04:09:26;;;;;;;3.87;2.43;;;7.60;99.90;;;;;;5079544;28;20538;-59
2023/11/13 04:11:53;;;;;;;3.30;3.00;;;7.60;99.90;;;;;;5079156;28;20551;-60
2023/11/13 04:14:20;;;;;;;9.13;2.57;;;7.60;99.90;;;;;;5079017;28;20438;-60
2023/11/13 04:16:47;;;;;;;3.63;2.83;;;7.60;99.90;;;;;;5079545;28;20543;-61
2023/11/13 04:19:14;;;;;;;4.10;3.23;;;7.60;99.90;;;;;;5079295;28;20541;-61
2023/11/13 04:21:41;;;;;;;5.60;4.10;;;7.60;99.90;;;;;;5079254;28;20447;-60
2023/11/13 04:24:11;;;;;;;6.60;3.80;;;7.60;99.90;;;;;;5079092;28;20854;-60
2023/11/13 04:26:38;;;;;;;7.17;4.40;;;7.60;99.90;;;;;;5078947;28;20478;-61
2023/11/13 04:29:05;;;;;;;4.57;3.83;;;7.60;99.90;;;;;;5078988;28;20438;-60
2023/11/13 04:31:33;;;;;;;5.50;3.80;;;7.70;99.90;;;;;;5079274;28;20446;-59
2023/11/13 04:34:00;;;;;;;7.53;3.50;;;7.70;99.90;;;;;;5079408;28;20553;-60
2023/11/13 04:36:27;;;;;;;5.20;3.83;;;7.70;99.90;;;;;;5078707;28;20450;-61
2023/11/13 04:38:54;;;;;;;5.80;3.10;;;7.70;99.90;;;;;;5078905;28;20557;-60
2023/11/13 04:41:23;;;;;;;3.43;3.10;;;7.70;99.90;;;;;;5078866;28;20442;-61
2023/11/13 04:43:49;;;;;;;5.50;3.17;;;7.70;99.90;;;;;;5083638;28;21022;-59
2023/11/13 04:46:16;;;;;;;4.57;3.60;;;7.70;99.90;;;;;;5083354;28;20950;-62
2023/11/13 04:48:43;;;;;;;6.23;3.30;;;7.70;99.90;;;;;;5083044;28;20800;-58
2023/11/13 04:51:10;;;;;;;4.23;3.20;;;7.70;99.90;;;;;;5082770;28;20970;-61
2023/11/13 04:53:37;;;;;;;9.40;3.07;;;7.60;99.90;;;;;;5082738;28;20450;-59
2023/11/13 04:56:05;;;;;;;4.07;3.60;;;7.60;99.90;;;;;;5082552;28;20558;-60
2023/11/13 04:58:33;;;;;;;3.63;3.33;;;7.50;99.90;;;;;;5082605;28;20546;-56
2023/11/13 05:01:00;;;;;;;5.30;3.93;;;7.40;99.90;;;;;;5082979;28;20450;-56
2023/11/13 05:03:27;;;;;;;4.43;3.23;;;7.50;99.90;;;;;;5082550;28;20549;-61
2023/11/13 05:05:54;;;;;;;4.50;4.10;;;7.50;99.90;;;;;;5083295;28;20446;-61
2023/11/13 05:08:21;;;;;;;5.20;4.23;;;7.40;99.90;;;;;;5082561;28;20490;-60
2023/11/13 05:10:48;;;;;;;4.50;3.60;;;7.40;99.90;;;;;;5082254;28;21007;-61
2023/11/13 05:13:15;;;;;;;4.43;3.87;;;7.40;99.90;;;;;;5082605;28;20470;-60
2023/11/13 05:15:44;;;;;;;6.00;3.90;;;7.40;99.90;;;;;;5082281;28;20438;-61
2023/11/13 05:18:10;;;;;;;6.73;4.70;;;7.40;99.90;;;;;;5083050;28;21022;-61
2023/11/13 05:20:42;;;;;;;5.97;4.80;;;7.40;99.90;;;;;;5078921;28;20465;-60
2023/11/13 05:23:09;;;;;;;6.60;4.13;;;7.40;99.90;;;;;;5075346;28;20447;-61
2023/11/13 05:25:36;;;;;;;8.03;4.10;;;7.40;99.90;;;;;;5062827;28;20478;-59
2023/11/13 05:28:06;;;;;;;4.10;3.60;;;7.40;99.90;;;;;;5062225;28;20745;-60
2023/11/13 05:30:34;;;;;;;6.67;4.00;;;7.30;99.90;;;;;;5062599;28;20502;-60
2023/11/13 05:33:02;;;;;;;6.53;3.80;;;7.30;99.90;;;;;;5066617;28;20489;-60
2023/11/13 05:35:29;;;;;;;4.60;4.20;;;7.30;99.90;;;;;;5082478;28;20477;-60
2023/11/13 05:37:56;;;;;;;6.57;4.13;;;7.30;99.90;;;;;;5081776;28;20514;-60
2023/11/13 05:40:24;;;;;;;6.50;5.53;;;7.30;99.90;;;;;;5081288;28;20529;-59
2023/11/13 05:42:51;;;;;;;5.67;4.00;;;7.30;99.90;;;;;;5074188;28;20446;-60
2023/11/13 05:45:18;;;;;;;5.43;3.17;;;7.30;99.90;;;;;;5082336;28;20454;-61
2023/11/13 05:47:45;;;;;;;5.03;3.63;;;7.30;99.90;;;;;;5082268;28;20539;-60
2023/11/13 05:50:13;;;;;;;4.23;2.43;;;7.30;99.90;;;;;;5082710;28;20477;-61
2023/11/13 05:52:42;;;;;;;3.73;2.50;;;7.30;99.90;;;;;;5081360;28;21137;-58
2023/11/13 05:55:09;;;;;;;3.63;2.73;;;7.30;99.90;;;;;;5080232;28;20917;-58
2023/11/13 05:57:39;;;;;;;4.67;3.90;;;7.30;99.90;;;;;;5081796;28;20469;-60
2023/11/13 06:00:11;;;;;;;4.00;3.20;;;7.30;99.90;;;;;;5082228;28;20478;-58
2023/11/13 06:02:38;;;;;;;5.00;3.30;;;7.30;99.90;;;;;;5082201;28;20510;-61
2023/11/13 06:05:05;;;;;;;6.57;3.20;;;7.30;99.90;;;;;;5081525;28;20535;-60
2023/11/13 06:07:33;;;;;;;4.03;3.10;;;7.30;99.90;;;;;;5081352;28;20435;-60
2023/11/13 06:10:00;;;;;;;4.10;3.10;;;7.30;99.90;;;;;;5081666;28;20468;-61
2023/11/13 06:12:27;;;;;;;3.93;3.00;;;7.30;99.90;;;;;;5081500;28;20513;-59
2023/11/13 06:14:54;;;;;;;3.50;2.40;;;7.30;99.90;;;;;;5081338;28;20474;-60
2023/11/13 06:17:23;;;;;;;2.53;2.27;;;7.30;99.90;;;;;;5081072;28;20838;-59
2023/11/13 06:19:53;;;;;;;3.50;2.67;;;7.30;99.90;;;;;;5081418;28;20453;-61
2023/11/13 06:22:20;;;;;;;4.80;2.87;;;7.30;99.90;;;;;;5081852;28;20466;-59
2023/11/13 06:24:48;;;;;;;4.70;2.57;;;7.30;99.90;;;;;;5081934;28;20438;-61
2023/11/13 06:27:15;;;;;;;4.40;3.47;;;7.30;99.90;;;;;;5080667;28;20473;-59
2023/11/13 06:29:42;;;;;;;4.20;3.37;;;7.30;99.90;;;;;;5081527;28;20730;-59
2023/11/13 06:32:11;;;;;;;6.00;3.23;;;7.30;99.90;;;;;;5081747;28;20549;-59
2023/11/13 06:34:37;;;;;;;3.53;2.87;;;7.30;99.90;;;;;;5081606;28;20491;-60
2023/11/13 06:37:05;;;;;;;5.87;2.80;;;7.30;99.90;;;;;;5081072;28;20926;-56
2023/11/13 06:39:32;;;;;;;3.47;2.80;;;7.20;99.90;;;;;;5081794;28;20536;-60
2023/11/13 06:42:00;;;;;;;5.03;2.70;;;7.30;99.90;;;;;;5080719;28;20486;-61
2023/11/13 06:44:27;;;;;;;4.60;2.73;;;7.30;99.90;;;;;;5080863;28;20501;-62
2023/11/13 06:46:54;;;;;;;6.30;2.77;;;7.30;99.90;;;;;;5080886;28;20553;-59
2023/11/13 06:49:21;;;;;;;6.20;2.70;;;7.30;99.90;;;;;;5079808;28;20469;-60
2023/11/13 06:51:49;;;;;;;5.77;3.40;;;7.30;99.90;;;;;;5074876;28;20507;-60
2023/11/13 06:54:16;;;;;;;4.00;2.67;;;7.30;99.90;;;;;;5067137;28;20458;-61
2023/11/13 06:56:42;;;;;;;5.63;2.53;;;7.40;99.90;;;;;;5080354;28;20534;-60
2023/11/13 06:59:11;;;;;;;4.50;3.00;;;7.40;99.90;;;;;;5070924;28;20526;-60
2023/11/13 07:01:40;;;;;;;8.20;3.07;;;7.40;99.90;;;;;;5060202;28;20443;-61
2023/11/13 07:04:10;;;;;;;7.10;3.13;;;7.40;99.90;;;;;;5060432;28;20439;-62
2023/11/13 07:06:37;;;;;;;4.43;3.80;;;7.40;99.90;;;;;;5060218;28;20555;-60
2023/11/13 07:09:10;;;;;;;6.70;5.30;;;7.40;99.90;;;;;;5060768;28;20440;-60
2023/11/13 07:11:38;;;;;;;6.50;5.47;;;7.40;99.90;;;;;;5079454;28;20484;-59
2023/11/13 07:14:06;;;;;;;11.53;7.63;;;7.30;99.90;;;;;;5089854;28;20455;-59
2023/11/13 07:16:35;;;;;;;7.17;6.47;;;7.30;99.90;;;;;;5075842;28;20455;-58
2023/11/13 07:19:03;;;;;;;9.50;7.20;;;7.40;99.90;;;;;;5081438;28;20474;-60
2023/11/13 07:21:35;;;;;;;8.77;7.87;;;7.30;99.90;;;;;;5084099;28;20459;-54
2023/11/13 07:24:03;;;;;;;8.17;6.77;;;7.40;99.90;;;;;;5086360;28;20569;-59
2023/11/13 07:26:30;;;;;;;9.07;5.73;;;7.40;99.90;;;;;;5083262;28;20513;-60
2023/11/13 07:28:57;;;;;;;7.90;6.43;;;7.40;99.90;;;;;;5094390;28;20481;-59
2023/11/13 07:31:25;;;;;;;11.40;5.37;;;7.40;99.90;;;;;;5094473;28;20800;-59
2023/11/13 07:33:54;;;;;;;12.30;6.03;;;7.40;99.90;;;;;;5095125;28;20505;-58
2023/11/13 07:36:21;;;;;;;10.70;4.90;;;7.40;99.90;;;;;;5093361;28;20518;-58
2023/11/13 07:38:48;;;;;;;8.23;6.13;;;7.40;99.90;;;;;;5094696;28;20470;-57
2023/11/13 07:41:16;;;;;;;8.33;5.70;;;7.40;99.90;;;;;;5087350;28;20459;-52
2023/11/13 07:43:44;;;;;;;9.47;5.70;;;7.40;99.90;;;;;;5094301;28;20454;-58
2023/11/13 07:46:12;;;;;;;7.20;6.33;;;7.50;99.90;;;;;;5092248;28;20599;-56
2023/11/13 07:48:40;;;;;;;8.67;6.57;;;7.50;99.90;;;;;;5094888;28;20430;-55
2023/11/13 07:51:09;;;;;;;8.13;6.30;;;7.50;99.90;;;;;;5094991;28;20438;-56
2023/11/13 07:53:36;;;;;;;9.90;6.53;;;7.50;99.90;;;;;;5093841;28;20484;-56
2023/11/13 07:56:04;;;;;;;10.10;6.73;;;7.40;99.90;;;;;;5094432;28;20442;-60
2023/11/13 07:58:31;;;;;;;9.23;5.70;;;7.40;99.90;;;;;;5094493;28;20482;-56
2023/11/13 08:00:58;;;;;;;10.53;5.83;;;7.40;99.90;;;;;;5094143;28;20469;-62
2023/11/13 08:03:26;;;;;;;8.10;5.50;;;7.40;99.90;;;;;;5094663;28;20457;-59
2023/11/13 08:05:53;;;;;;;8.77;5.67;;;7.50;99.90;;;;;;5094096;28;20458;-59
2023/11/13 08:08:22;;;;;;;11.53;5.63;;;7.60;99.90;;;;;;5092902;28;20478;-58
2023/11/13 08:10:51;;;;;;;7.47;5.10;;;7.60;99.90;;;;;;5093918;28;20430;-55
2023/11/13 08:13:19;;;;;;;8.20;5.93;;;7.60;99.90;;;;;;5094737;28;20446;-59
2023/11/13 08:15:46;;;;;;;8.93;5.27;;;7.60;99.90;;;;;;5094186;28;20452;-57
2023/11/13 08:18:15;;;;;;;11.40;5.80;;;7.60;99.90;;;;;;5094152;28;20557;-58
2023/11/13 08:20:43;;;;;;;12.40;6.10;;;7.50;99.90;;;;;;5093820;28;20574;-59
2023/11/13 08:23:13;;;;;;;10.47;6.87;;;7.50;99.90;;;;;;5094247;28;20454;-57
2023/11/13 08:25:44;;;;;;;9.23;5.30;;;7.50;99.90;;;;;;5094118;28;20474;-56
2023/11/13 08:28:12;;;;;;;6.50;4.90;;;7.50;99.90;;;;;;5093744;28;20446;-59
2023/11/13 08:30:41;;;;;;;12.90;5.53;;;7.50;99.90;;;;;;5093710;28;20462;-59
2023/11/13 08:33:09;;;;;;;10.50;5.03;;;7.40;99.90;;;;;;5093364;28;20474;-59
2023/11/13 08:35:37;;;;;;;10.60;6.30;;;7.40;99.90;;;;;;5094181;28;20484;-57
2023/11/13 08:38:04;;;;;;;9.33;4.93;;;7.50;99.90;;;;;;5093211;28;20485;-58
2023/11/13 08:40:31;;;;;;;6.83;5.53;;;7.50;99.90;;;;;;5094222;28;20439;-57
2023/11/13 08:43:02;;;;;;;4.57;3.90;;;7.50;99.90;;;;;;5093675;28;20505;-58
2023/11/13 08:45:30;;;;;;;9.23;5.03;;;7.50;99.90;;;;;;5094028;28;20491;-58
2023/11/13 08:47:59;;;;;;;9.97;5.20;;;7.60;99.90;;;;;;5093082;28;20474;-59
2023/11/13 08:50:27;;;;;;;9.40;4.80;;;7.60;99.90;;;;;;5073994;28;20447;-58
2023/11/13 08:52:56;;;;;;;6.43;4.87;;;7.60;99.90;;;;;;5077910;28;20443;-59
2023/11/13 08:55:25;;;;;;;7.97;4.87;;;7.70;99.90;;;;;;5093533;28;20512;-56
2023/11/13 08:57:52;;;;;;;8.53;5.47;;;7.70;99.90;;;;;;5093962;28;20447;-59
2023/11/13 09:00:22;;;;;;;7.83;4.73;;;7.80;99.90;;;;;;5092847;28;20490;-60
2023/11/13 09:02:49;;;;;;;18.27;5.07;;;7.80;99.90;;;;;;5092858;28;20454;-58
2023/11/13 09:05:19;;;;;;;6.70;5.00;;;7.80;99.90;;;;;;5093145;28;20465;-61
2023/11/13 09:07:46;;;;;;;7.47;5.30;;;7.90;99.90;;;;;;5092373;28;20451;-59
2023/11/13 09:10:16;;;;;;;8.27;4.83;;;8.00;99.90;;;;;;5089284;28;20516;-59
2023/11/13 09:12:44;;;;;;;8.70;5.23;;;8.20;99.90;;;;;;5093337;28;20438;-60
2023/11/13 09:15:14;;;;;;;6.30;3.80;;;8.40;99.90;;;;;;5092585;28;20446;-59
2023/11/13 09:17:45;;;;;;;7.27;4.23;;;8.60;99.90;;;;;;5088251;28;20480;-58
2023/11/13 09:20:15;;;;;;;7.40;4.53;;;8.90;99.90;;;;;;5091799;28;20506;-60
2023/11/13 09:22:43;;;;;;;6.03;4.27;;;9.50;99.90;;;;;;5087857;28;20481;-62
2023/11/13 09:25:14;;;;;;;8.80;4.47;;;10.60;99.90;;;;;;5087269;28;20466;-59
2023/11/13 09:27:43;;;;;;;9.90;4.63;;;11.50;99.90;;;;;;5085185;28;20446;-61
2023/11/13 09:30:11;;;;;;;12.03;3.70;;;12.40;99.90;;;;;;5086681;28;20486;-61
2023/11/13 09:32:40;;;;;;;9.70;4.87;;;13.10;99.90;;;;;;5085786;28;20918;-59
2023/11/13 09:35:18;;;;;;;8.13;4.97;;;13.40;99.90;;;;;;5086496;28;20442;-57
2023/11/13 09:37:47;;;;;;;6.30;4.40;;;13.90;99.90;;;;;;5083403;28;20525;-62
2023/11/13 09:40:15;;;;;;;7.27;4.63;;;14.40;99.90;;;;;;5083765;28;20987;-60
2023/11/13 09:42:46;;;;;;;5.83;3.60;;;14.60;99.90;;;;;;5081534;28;20489;-61
2023/11/13 09:45:15;;;;;;;6.10;5.40;;;14.80;99.90;;;;;;5084581;28;20974;-62
2023/11/13 09:47:45;;;;;;;8.30;4.87;;;15.30;99.90;;;;;;5082833;28;20490;-58
2023/11/13 09:50:16;;;;;;;5.67;3.93;;;15.60;99.90;;;;;;5081396;28;20447;-62
2023/11/13 09:52:47;;;;;;;5.07;3.33;;;15.60;99.90;;;;;;5080751;28;20492;-61
2023/11/13 09:55:18;;;;;;;4.57;3.73;;;15.60;99.90;;;;;;5084232;28;20430;-60
2023/11/13 09:57:48;;;;;;;4.37;3.97;;;15.90;99.90;;;;;;5081779;28;20513;-58
2023/11/13 10:00:18;;;;;;;6.30;4.30;;;16.10;99.90;;;;;;5083440;28;20485;-57
2023/11/13 10:02:48;;;;;;;5.00;4.10;;;16.50;99.90;;;;;;5080639;28;20506;-57
2023/11/13 10:05:17;;;;;;;5.83;4.60;;;16.60;99.90;;;;;;5080357;28;20485;-59
2023/11/13 10:07:48;;;;;;;7.43;4.50;;;16.90;99.90;;;;;;5076737;28;20577;-60
2023/11/13 10:10:22;;;;;;;11.33;4.43;;;16.80;99.40;;;;;;5082035;28;20458;-61
2023/11/13 10:12:50;;;;;;;4.83;4.30;;;16.60;99.60;;;;;;5082470;28;20459;-57
2023/11/13 10:15:24;;;;;;;15.93;4.57;;;16.30;99.90;;;;;;5062640;28;20439;-59
2023/11/13 10:17:52;;;;;;;8.03;4.33;;;16.10;99.90;;;;;;5062617;28;20446;-60
2023/11/13 10:20:21;;;;;;;6.37;3.83;;;16.10;99.90;;;;;;5062457;28;20497;-59
2023/11/13 10:22:59;;;;;;;5.67;4.97;;;15.90;99.90;;;;;;5062769;28;20443;-61
2023/11/13 10:25:27;;;;;;;4.87;4.27;;;16.00;99.90;;;;;;5063449;28;20438;-60
2023/11/13 10:27:59;;;;;;;6.37;4.30;;;15.80;99.90;;;;;;5062953;28;20447;-60
2023/11/13 10:30:30;;;;;;;6.60;4.40;;;15.50;99.90;;;;;;5063594;28;20447;-61
2023/11/13 10:32:58;;;;;;;5.30;4.63;;;15.30;99.90;;;;;;5063347;28;20471;-61
2023/11/13 10:35:35;;;;;;;10.13;4.20;;;15.30;99.90;;;;;;5063064;28;20454;-61
2023/11/13 10:38:07;;;;;;;6.80;5.27;;;15.20;99.90;;;;;;5063282;28;20438;-57
2023/11/13 10:40:39;;;;;;;7.07;3.93;;;14.90;99.90;;;;;;5063155;28;20467;-60
2023/11/13 10:43:07;;;;;;;6.40;3.90;;;14.40;99.90;;;;;;5064692;28;20534;-58
2023/11/13 10:45:35;;;;;;;9.27;5.30;;;13.90;99.90;;;;;;5065102;28;20467;-61
2023/11/13 10:48:02;;;;;;;7.33;4.23;;;13.50;99.90;;;;;;5065836;28;20447;-59
2023/11/13 10:50:32;;;;;;;5.00;3.37;;;13.20;99.90;;;;;;5065430;28;20443;-60
2023/11/13 10:53:01;;;;;;;8.70;3.90;;;12.70;99.90;;;;;;5066029;28;20481;-59
2023/11/13 10:55:29;;;;;;;4.83;4.23;;;12.40;99.90;;;;;;5066256;28;20455;-61
2023/11/13 10:57:57;;;;;;;6.60;4.70;;;12.20;99.90;;;;;;5066550;28;20471;-61
2023/11/13 11:00:24;;;;;;;4.30;3.60;;;12.00;99.90;;;;;;5067669;28;20471;-61
2023/11/13 11:02:54;;;;;;;6.40;3.93;;;11.80;99.90;;;;;;5066544;28;20558;-60
2023/11/13 11:05:22;;;;;;;12.10;4.90;;;11.70;99.90;;;;;;5079131;28;20516;-61
2023/11/13 11:07:53;;;;;;;4.27;3.87;;;11.50;99.90;;;;;;5085574;28;20462;-61
2023/11/13 11:10:25;;;;;;;5.30;4.07;;;11.40;99.90;;;;;;5084525;28;20478;-62
2023/11/13 11:13:01;;;;;;;6.80;3.80;;;11.10;99.90;;;;;;5086546;28;20467;-61
2023/11/13 11:15:44;;;;;;;24.17;13.60;;;11.10;99.90;;;;;;5094197;28;20473;-59
2023/11/13 11:18:17;;;;;;;5.23;4.00;;;11.00;99.90;;;;;;5085260;28;20443;-56
2023/11/13 11:20:53;;;;;;;5.77;3.80;;;10.90;99.90;;;;;;5075084;28;20502;-57
2023/11/13 11:23:28;;;;;;;6.50;3.83;;;10.80;99.90;;;;;;5076110;28;20418;-59
2023/11/13 11:26:00;;;;;;;6.87;4.53;;;10.80;99.90;;;;;;5086438;28;20929;-57
2023/11/13 11:28:44;;;;;;;6.63;3.40;;;10.70;99.90;;;;;;5077191;28;20454;-56
2023/11/13 11:31:45;;;;;;;5.80;4.07;;;10.70;99.90;;;;;;5102062;28;20481;-57
2023/11/13 11:34:19;;;;;;;6.47;3.30;;;10.60;99.90;;;;;;5112860;28;20429;-56
2023/11/13 11:36:46;;;;;;;4.87;3.50;;;10.50;99.90;;;;;;5096158;28;20507;-59
2023/11/13 11:39:18;;;;;;;13.53;4.53;;;10.40;99.90;;;;;;5089900;28;20447;-60
2023/11/13 11:41:51;;;;;;;5.00;3.30;;;10.30;99.90;;;;;;5079398;28;20469;-58
2023/11/13 11:44:21;;;;;;;4.80;4.13;;;10.30;99.90;;;;;;5093841;28;20470;-55
2023/11/13 11:46:49;;;;;;;5.60;3.20;;;10.30;99.90;;;;;;5094554;28;20458;-59
2023/11/13 11:49:24;;;;;;;5.40;3.80;;;10.30;99.90;;;;;;5094775;28;20478;-54
2023/11/13 11:51:52;;;;;;;3.53;2.90;;;10.30;99.90;;;;;;5086715;28;20492;-55
2023/11/13 11:54:22;;;;;;;4.13;3.10;;;10.20;99.90;;;;;;5095649;28;20452;-59
2023/11/13 11:57:01;;;;;;;4.47;2.73;;;10.20;99.90;;;;;;5095589;28;20458;-60
2023/11/13 11:59:30;;;;;;;7.17;3.80;;;10.20;99.90;;;;;;5095648;28;20508;-60
2023/11/13 12:01:57;;;;;;;5.60;3.40;;;10.20;99.90;;;;;;5095532;28;20481;-58
2023/11/13 12:04:24;;;;;;;5.47;3.17;;;10.20;99.90;;;;;;5095833;28;20441;-53
2023/11/13 12:06:58;;;;;;;5.20;3.60;;;10.20;99.90;;;;;;5095438;28;20423;-56
2023/11/13 12:09:27;;;;;;;3.70;2.80;;;10.20;99.90;;;;;;5095608;28;20472;-56
2023/11/13 12:11:55;;;;;;;3.70;3.13;;;10.20;99.90;;;;;;5095734;28;20514;-58
2023/11/13 12:14:22;;;;;;;8.73;4.30;;;10.30;99.90;;;;;;5095405;28;20454;-58
2023/11/13 12:16:49;;;;;;;5.20;2.97;;;10.30;99.90;;;;;;5087517;28;20466;-59
2023/11/13 12:19:16;;;;;;;5.37;3.40;;;10.30;99.90;;;;;;5095794;28;20458;-59
2023/11/13 12:21:45;;;;;;;6.70;3.80;;;10.30;99.90;;;;;;5094088;28;20462;-62
2023/11/13 12:24:19;;;;;;;4.97;3.53;;;10.30;99.90;;;;;;5094378;28;20458;-58
2023/11/13 12:26:49;;;;;;;8.47;3.87;;;10.30;99.90;;;;;;5095584;28;20525;-60
2023/11/13 12:29:16;;;;;;;5.10;4.53;;;10.30;99.90;;;;;;5095209;28;20462;-60
2023/11/13 12:31:44;;;;;;;6.50;4.30;;;10.30;99.90;;;;;;5095654;28;20439;-60
2023/11/13 12:34:14;;;;;;;6.77;3.77;;;10.30;99.90;;;;;;5093081;28;20450;-59
2023/11/13 12:36:42;;;;;;;5.57;4.07;;;10.30;99.90;;;;;;5094979;28;20752;-59
2023/11/13 12:39:15;;;;;;;6.63;4.63;;;10.30;99.90;;;;;;5095344;28;20438;-61
2023/11/13 12:41:43;;;;;;;5.90;3.60;;;10.30;99.90;;;;;;5094163;28;20482;-58
2023/11/13 12:44:12;;;;;;;8.03;4.63;;;10.30;99.90;;;;;;5094439;28;20451;-56
2023/11/13 12:46:43;;;;;;;5.87;4.47;;;10.30;99.90;;;;;;5094541;28;20572;-59
2023/11/13 12:49:12;;;;;;;9.40;5.77;;;10.30;99.90;;;;;;5094770;28;20434;-59
2023/11/13 12:51:40;;;;;;;8.23;4.87;;;10.30;99.90;;;;;;5095012;28;20443;-59
2023/11/13 12:54:11;;;;;;;5.43;4.70;;;10.30;99.90;;;;;;5094690;28;20504;-60
2023/11/13 12:56:42;;;;;;;10.13;4.83;;;10.40;99.90;;;;;;5095027;28;20452;-58
2023/11/13 12:59:09;;;;;;;7.20;4.27;;;10.40;99.90;;;;;;5092710;28;20438;-58